sensor_id;sensor_type;location;lat;lon;timestamp;P1;durP1;ratioP1;P2;durP2;ratioP2
2680;SDS011;1350;42.134;24.708;2023-04-06T00:00:08;15.15;;;10.68;;
2680;SDS011;1350;42.134;24.708;2023-04-06T00:02:37;13.30;;;9.05;;
2680;SDS011;1350;42.134;24.708;2023-04-06T00:05:04;15.98;;;11.27;;
2680;SDS011;1350;42.134;24.708;2023-04-06T00:07:33;12.80;;;9.20;;
2680;SDS011;1350;42.134;24.708;2023-04-06T00:10:00;13.88;;;10.13;;
2680;SDS011;1350;42.134;24.708;2023-04-06T00:12:27;13.55;;;9.73;;
2680;SDS011;1350;42.134;24.708;2023-04-06T00:14:54;12.50;;;9.30;;
2680;SDS011;1350;42.134;24.708;2023-04-06T00:17:21;13.57;;;10.43;;
2680;SDS011;1350;42.134;24.708;2023-04-06T00:19:48;15.32;;;11.25;;
2680;SDS011;1350;42.134;24.708;2023-04-06T00:22:15;17.58;;;10.55;;
2680;SDS011;1350;42.134;24.708;2023-04-06T00:24:43;14.60;;;9.85;;
2680;SDS011;1350;42.134;24.708;2023-04-06T00:27:10;15.25;;;10.57;;
2680;SDS011;1350;42.134;24.708;2023-04-06T00:29:37;14.55;;;10.00;;
2680;SDS011;1350;42.134;24.708;2023-04-06T00:32:03;13.10;;;10.02;;
2680;SDS011;1350;42.134;24.708;2023-04-06T00:34:30;14.27;;;9.63;;
2680;SDS011;1350;42.134;24.708;2023-04-06T00:36:57;15.27;;;10.93;;
2680;SDS011;1350;42.134;24.708;2023-04-06T00:39:24;15.07;;;12.23;;
2680;SDS011;1350;42.134;24.708;2023-04-06T00:41:52;15.98;;;11.48;;
2680;SDS011;1350;42.134;24.708;2023-04-06T00:44:20;13.23;;;10.95;;
2680;SDS011;1350;42.134;24.708;2023-04-06T00:46:48;16.00;;;11.75;;
2680;SDS011;1350;42.134;24.708;2023-04-06T00:49:15;13.98;;;9.70;;
2680;SDS011;1350;42.134;24.708;2023-04-06T00:51:42;14.35;;;10.90;;
2680;SDS011;1350;42.134;24.708;2023-04-06T00:54:08;16.85;;;11.07;;
2680;SDS011;1350;42.134;24.708;2023-04-06T00:56:35;14.63;;;10.73;;
2680;SDS011;1350;42.134;24.708;2023-04-06T00:59:03;13.73;;;10.68;;
2680;SDS011;1350;42.134;24.708;2023-04-06T01:01:30;14.43;;;11.00;;
2680;SDS011;1350;42.134;24.708;2023-04-06T01:03:58;16.10;;;11.55;;
2680;SDS011;1350;42.134;24.708;2023-04-06T01:06:25;16.17;;;11.88;;
2680;SDS011;1350;42.134;24.708;2023-04-06T01:08:52;13.40;;;10.00;;
2680;SDS011;1350;42.134;24.708;2023-04-06T01:11:18;19.55;;;11.65;;
2680;SDS011;1350;42.134;24.708;2023-04-06T01:13:45;16.55;;;10.32;;
2680;SDS011;1350;42.134;24.708;2023-04-06T01:16:14;14.80;;;11.70;;
2680;SDS011;1350;42.134;24.708;2023-04-06T01:18:41;16.40;;;11.90;;
2680;SDS011;1350;42.134;24.708;2023-04-06T01:21:08;15.82;;;11.00;;
2680;SDS011;1350;42.134;24.708;2023-04-06T01:23:41;15.25;;;12.25;;
2680;SDS011;1350;42.134;24.708;2023-04-06T01:26:09;14.52;;;11.38;;
2680;SDS011;1350;42.134;24.708;2023-04-06T01:28:36;14.43;;;10.93;;
2680;SDS011;1350;42.134;24.708;2023-04-06T01:31:03;13.90;;;9.90;;
2680;SDS011;1350;42.134;24.708;2023-04-06T01:33:30;16.23;;;10.15;;
2680;SDS011;1350;42.134;24.708;2023-04-06T01:35:57;13.05;;;10.32;;
2680;SDS011;1350;42.134;24.708;2023-04-06T01:38:24;13.75;;;10.02;;
2680;SDS011;1350;42.134;24.708;2023-04-06T01:40:53;16.55;;;11.15;;
2680;SDS011;1350;42.134;24.708;2023-04-06T01:43:20;16.85;;;10.55;;
2680;SDS011;1350;42.134;24.708;2023-04-06T01:45:47;14.35;;;10.45;;
2680;SDS011;1350;42.134;24.708;2023-04-06T01:48:14;16.67;;;11.13;;
2680;SDS011;1350;42.134;24.708;2023-04-06T01:50:40;15.40;;;10.20;;
2680;SDS011;1350;42.134;24.708;2023-04-06T01:53:07;14.02;;;10.38;;
2680;SDS011;1350;42.134;24.708;2023-04-06T01:55:34;14.80;;;11.27;;
2680;SDS011;1350;42.134;24.708;2023-04-06T01:58:02;13.95;;;11.70;;
2680;SDS011;1350;42.134;24.708;2023-04-06T02:00:29;14.07;;;9.70;;
2680;SDS011;1350;42.134;24.708;2023-04-06T02:02:56;14.13;;;10.85;;
2680;SDS011;1350;42.134;24.708;2023-04-06T02:05:23;16.55;;;11.15;;
2680;SDS011;1350;42.134;24.708;2023-04-06T02:07:50;20.92;;;12.35;;
2680;SDS011;1350;42.134;24.708;2023-04-06T02:10:16;19.05;;;13.00;;
2680;SDS011;1350;42.134;24.708;2023-04-06T02:12:43;16.75;;;10.82;;
2680;SDS011;1350;42.134;24.708;2023-04-06T02:15:12;15.70;;;10.55;;
2680;SDS011;1350;42.134;24.708;2023-04-06T02:17:40;18.15;;;12.40;;
2680;SDS011;1350;42.134;24.708;2023-04-06T02:20:07;15.60;;;11.27;;
2680;SDS011;1350;42.134;24.708;2023-04-06T02:22:35;15.90;;;11.52;;
2680;SDS011;1350;42.134;24.708;2023-04-06T02:25:02;14.55;;;11.80;;
2680;SDS011;1350;42.134;24.708;2023-04-06T02:27:29;15.82;;;12.05;;
2680;SDS011;1350;42.134;24.708;2023-04-06T02:29:55;16.23;;;11.77;;
2680;SDS011;1350;42.134;24.708;2023-04-06T02:32:24;17.80;;;12.38;;
2680;SDS011;1350;42.134;24.708;2023-04-06T02:34:51;19.70;;;11.50;;
2680;SDS011;1350;42.134;24.708;2023-04-06T02:37:18;19.88;;;13.95;;
2680;SDS011;1350;42.134;24.708;2023-04-06T02:39:45;18.33;;;12.32;;
2680;SDS011;1350;42.134;24.708;2023-04-06T02:42:11;17.90;;;12.75;;
2680;SDS011;1350;42.134;24.708;2023-04-06T02:44:40;17.20;;;11.48;;
2680;SDS011;1350;42.134;24.708;2023-04-06T02:47:07;25.00;;;11.75;;
2680;SDS011;1350;42.134;24.708;2023-04-06T02:49:35;16.45;;;12.77;;
2680;SDS011;1350;42.134;24.708;2023-04-06T02:52:02;18.50;;;12.60;;
2680;SDS011;1350;42.134;24.708;2023-04-06T02:54:29;16.15;;;11.68;;
2680;SDS011;1350;42.134;24.708;2023-04-06T02:56:56;17.50;;;12.40;;
2680;SDS011;1350;42.134;24.708;2023-04-06T02:59:22;16.10;;;11.95;;
2680;SDS011;1350;42.134;24.708;2023-04-06T03:01:49;16.83;;;11.85;;
2680;SDS011;1350;42.134;24.708;2023-04-06T03:04:16;16.25;;;12.77;;
2680;SDS011;1350;42.134;24.708;2023-04-06T03:06:44;19.77;;;13.27;;
2680;SDS011;1350;42.134;24.708;2023-04-06T03:09:11;19.52;;;15.43;;
2680;SDS011;1350;42.134;24.708;2023-04-06T03:11:39;16.65;;;12.15;;
2680;SDS011;1350;42.134;24.708;2023-04-06T03:14:06;16.55;;;12.50;;
2680;SDS011;1350;42.134;24.708;2023-04-06T03:16:32;15.57;;;10.80;;
2680;SDS011;1350;42.134;24.708;2023-04-06T03:18:59;17.15;;;12.63;;
2680;SDS011;1350;42.134;24.708;2023-04-06T03:21:26;25.80;;;13.18;;
2680;SDS011;1350;42.134;24.708;2023-04-06T03:23:54;18.63;;;13.55;;
2680;SDS011;1350;42.134;24.708;2023-04-06T03:26:21;17.80;;;11.95;;
2680;SDS011;1350;42.134;24.708;2023-04-06T03:28:48;15.35;;;12.73;;
2680;SDS011;1350;42.134;24.708;2023-04-06T03:31:15;16.95;;;12.80;;
2680;SDS011;1350;42.134;24.708;2023-04-06T03:33:41;15.32;;;12.48;;
2680;SDS011;1350;42.134;24.708;2023-04-06T03:36:08;17.55;;;12.60;;
2680;SDS011;1350;42.134;24.708;2023-04-06T03:38:35;19.67;;;12.63;;
2680;SDS011;1350;42.134;24.708;2023-04-06T03:41:03;19.15;;;12.57;;
2680;SDS011;1350;42.134;24.708;2023-04-06T03:43:30;15.73;;;12.07;;
2680;SDS011;1350;42.134;24.708;2023-04-06T03:45:57;18.25;;;12.98;;
2680;SDS011;1350;42.134;24.708;2023-04-06T03:48:23;17.25;;;12.30;;
2680;SDS011;1350;42.134;24.708;2023-04-06T03:50:50;15.07;;;12.07;;
2680;SDS011;1350;42.134;24.708;2023-04-06T03:53:17;17.13;;;10.75;;
2680;SDS011;1350;42.134;24.708;2023-04-06T03:55:44;19.13;;;13.43;;
2680;SDS011;1350;42.134;24.708;2023-04-06T03:58:12;13.90;;;11.38;;
2680;SDS011;1350;42.134;24.708;2023-04-06T04:00:38;20.48;;;12.63;;
2680;SDS011;1350;42.134;24.708;2023-04-06T04:03:05;16.23;;;11.98;;
2680;SDS011;1350;42.134;24.708;2023-04-06T04:05:32;16.30;;;11.63;;
2680;SDS011;1350;42.134;24.708;2023-04-06T04:07:59;19.55;;;12.02;;
2680;SDS011;1350;42.134;24.708;2023-04-06T04:10:25;15.95;;;11.73;;
2680;SDS011;1350;42.134;24.708;2023-04-06T04:12:52;18.63;;;11.75;;
2680;SDS011;1350;42.134;24.708;2023-04-06T04:15:20;16.17;;;12.00;;
2680;SDS011;1350;42.134;24.708;2023-04-06T04:17:47;17.05;;;12.15;;
2680;SDS011;1350;42.134;24.708;2023-04-06T04:20:15;19.58;;;11.77;;
2680;SDS011;1350;42.134;24.708;2023-04-06T04:22:42;19.02;;;12.82;;
2680;SDS011;1350;42.134;24.708;2023-04-06T04:25:09;19.73;;;13.50;;
2680;SDS011;1350;42.134;24.708;2023-04-06T04:27:36;21.77;;;11.90;;
2680;SDS011;1350;42.134;24.708;2023-04-06T04:30:03;16.65;;;10.95;;
2680;SDS011;1350;42.134;24.708;2023-04-06T04:32:33;17.70;;;11.70;;
2680;SDS011;1350;42.134;24.708;2023-04-06T04:35:00;14.10;;;10.80;;
2680;SDS011;1350;42.134;24.708;2023-04-06T04:37:27;20.83;;;11.90;;
2680;SDS011;1350;42.134;24.708;2023-04-06T04:39:54;15.98;;;11.07;;
2680;SDS011;1350;42.134;24.708;2023-04-06T04:42:21;22.67;;;12.77;;
2680;SDS011;1350;42.134;24.708;2023-04-06T04:44:47;19.55;;;11.98;;
2680;SDS011;1350;42.134;24.708;2023-04-06T04:47:14;16.63;;;12.48;;
2680;SDS011;1350;42.134;24.708;2023-04-06T04:49:42;12.95;;;10.35;;
2680;SDS011;1350;42.134;24.708;2023-04-06T04:52:09;16.15;;;10.75;;
2680;SDS011;1350;42.134;24.708;2023-04-06T04:54:36;14.07;;;10.52;;
2680;SDS011;1350;42.134;24.708;2023-04-06T04:57:02;14.60;;;10.23;;
2680;SDS011;1350;42.134;24.708;2023-04-06T04:59:29;15.05;;;11.25;;
2680;SDS011;1350;42.134;24.708;2023-04-06T05:01:56;13.38;;;10.98;;
2680;SDS011;1350;42.134;24.708;2023-04-06T05:04:23;14.68;;;10.70;;
2680;SDS011;1350;42.134;24.708;2023-04-06T05:06:51;16.45;;;11.27;;
2680;SDS011;1350;42.134;24.708;2023-04-06T05:09:29;20.17;;;11.98;;
2680;SDS011;1350;42.134;24.708;2023-04-06T05:11:56;16.00;;;11.43;;
2680;SDS011;1350;42.134;24.708;2023-04-06T05:14:23;16.00;;;10.27;;
2680;SDS011;1350;42.134;24.708;2023-04-06T05:16:49;13.40;;;10.02;;
2680;SDS011;1350;42.134;24.708;2023-04-06T05:19:16;20.00;;;11.77;;
2680;SDS011;1350;42.134;24.708;2023-04-06T05:21:43;13.10;;;9.18;;
2680;SDS011;1350;42.134;24.708;2023-04-06T05:24:11;13.85;;;9.90;;
2680;SDS011;1350;42.134;24.708;2023-04-06T05:26:39;15.45;;;10.65;;
2680;SDS011;1350;42.134;24.708;2023-04-06T05:29:05;17.98;;;10.95;;
2680;SDS011;1350;42.134;24.708;2023-04-06T05:31:32;12.98;;;9.40;;
2680;SDS011;1350;42.134;24.708;2023-04-06T05:33:59;14.63;;;10.90;;
2680;SDS011;1350;42.134;24.708;2023-04-06T05:36:26;25.50;;;9.95;;
2680;SDS011;1350;42.134;24.708;2023-04-06T05:38:52;18.45;;;8.93;;
2680;SDS011;1350;42.134;24.708;2023-04-06T05:41:22;12.80;;;9.05;;
2680;SDS011;1350;42.134;24.708;2023-04-06T05:43:49;16.75;;;9.55;;
2680;SDS011;1350;42.134;24.708;2023-04-06T05:46:16;13.10;;;9.15;;
2680;SDS011;1350;42.134;24.708;2023-04-06T05:48:43;14.10;;;9.57;;
2680;SDS011;1350;42.134;24.708;2023-04-06T05:51:10;16.48;;;10.38;;
2680;SDS011;1350;42.134;24.708;2023-04-06T05:53:37;29.80;;;10.45;;
2680;SDS011;1350;42.134;24.708;2023-04-06T05:56:04;17.75;;;10.80;;
2680;SDS011;1350;42.134;24.708;2023-04-06T05:58:32;16.80;;;10.43;;
2680;SDS011;1350;42.134;24.708;2023-04-06T06:01:02;16.88;;;9.93;;
2680;SDS011;1350;42.134;24.708;2023-04-06T06:03:30;15.57;;;10.77;;
2680;SDS011;1350;42.134;24.708;2023-04-06T06:06:00;17.73;;;11.30;;
2680;SDS011;1350;42.134;24.708;2023-04-06T06:08:27;12.82;;;9.20;;
2680;SDS011;1350;42.134;24.708;2023-04-06T06:10:54;20.60;;;12.13;;
2680;SDS011;1350;42.134;24.708;2023-04-06T06:13:20;15.48;;;9.85;;
2680;SDS011;1350;42.134;24.708;2023-04-06T06:15:49;13.48;;;9.35;;
2680;SDS011;1350;42.134;24.708;2023-04-06T06:18:16;11.45;;;8.35;;
2680;SDS011;1350;42.134;24.708;2023-04-06T06:20:43;18.25;;;8.90;;
2680;SDS011;1350;42.134;24.708;2023-04-06T06:23:09;13.35;;;9.13;;
2680;SDS011;1350;42.134;24.708;2023-04-06T06:25:36;10.90;;;7.15;;
2680;SDS011;1350;42.134;24.708;2023-04-06T06:28:03;13.95;;;7.57;;
2680;SDS011;1350;42.134;24.708;2023-04-06T06:30:30;13.20;;;9.65;;
2680;SDS011;1350;42.134;24.708;2023-04-06T06:32:58;14.77;;;9.20;;
2680;SDS011;1350;42.134;24.708;2023-04-06T06:35:25;13.88;;;9.00;;
2680;SDS011;1350;42.134;24.708;2023-04-06T06:37:52;12.05;;;8.02;;
2680;SDS011;1350;42.134;24.708;2023-04-06T06:40:18;11.80;;;8.00;;
2680;SDS011;1350;42.134;24.708;2023-04-06T06:42:48;10.70;;;7.30;;
2680;SDS011;1350;42.134;24.708;2023-04-06T06:45:15;11.75;;;7.95;;
2680;SDS011;1350;42.134;24.708;2023-04-06T06:47:42;29.38;;;10.32;;
2680;SDS011;1350;42.134;24.708;2023-04-06T06:50:11;12.93;;;7.63;;
2680;SDS011;1350;42.134;24.708;2023-04-06T06:52:37;12.25;;;8.15;;
2680;SDS011;1350;42.134;24.708;2023-04-06T06:55:05;9.43;;;7.25;;
2680;SDS011;1350;42.134;24.708;2023-04-06T06:57:32;10.52;;;7.47;;
2680;SDS011;1350;42.134;24.708;2023-04-06T06:59:59;11.38;;;8.23;;
2680;SDS011;1350;42.134;24.708;2023-04-06T07:02:26;13.75;;;10.25;;
2680;SDS011;1350;42.134;24.708;2023-04-06T07:04:52;16.15;;;10.25;;
2680;SDS011;1350;42.134;24.708;2023-04-06T07:07:20;21.38;;;9.35;;
2680;SDS011;1350;42.134;24.708;2023-04-06T07:09:47;13.68;;;8.95;;
2680;SDS011;1350;42.134;24.708;2023-04-06T07:12:14;15.88;;;10.02;;
2680;SDS011;1350;42.134;24.708;2023-04-06T07:14:41;16.02;;;10.07;;
2680;SDS011;1350;42.134;24.708;2023-04-06T07:17:08;12.98;;;8.60;;
2680;SDS011;1350;42.134;24.708;2023-04-06T07:19:36;15.45;;;9.43;;
2680;SDS011;1350;42.134;24.708;2023-04-06T07:22:02;15.18;;;9.93;;
2680;SDS011;1350;42.134;24.708;2023-04-06T07:24:31;11.73;;;7.70;;
2680;SDS011;1350;42.134;24.708;2023-04-06T07:26:58;13.18;;;8.07;;
2680;SDS011;1350;42.134;24.708;2023-04-06T07:29:26;9.18;;;7.30;;
2680;SDS011;1350;42.134;24.708;2023-04-06T07:31:53;10.90;;;7.95;;
2680;SDS011;1350;42.134;24.708;2023-04-06T07:34:19;18.90;;;9.52;;
2680;SDS011;1350;42.134;24.708;2023-04-06T07:36:46;11.13;;;7.20;;
2680;SDS011;1350;42.134;24.708;2023-04-06T07:39:14;9.32;;;7.13;;
2680;SDS011;1350;42.134;24.708;2023-04-06T07:41:42;10.55;;;8.30;;
2680;SDS011;1350;42.134;24.708;2023-04-06T07:44:08;11.18;;;8.57;;
2680;SDS011;1350;42.134;24.708;2023-04-06T07:46:35;13.13;;;8.07;;
2680;SDS011;1350;42.134;24.708;2023-04-06T07:49:02;12.07;;;7.57;;
2680;SDS011;1350;42.134;24.708;2023-04-06T07:51:29;8.95;;;7.30;;
2680;SDS011;1350;42.134;24.708;2023-04-06T07:53:56;10.90;;;7.97;;
2680;SDS011;1350;42.134;24.708;2023-04-06T07:56:22;9.75;;;7.60;;
2680;SDS011;1350;42.134;24.708;2023-04-06T07:58:51;10.43;;;6.63;;
2680;SDS011;1350;42.134;24.708;2023-04-06T08:01:20;13.10;;;9.60;;
2680;SDS011;1350;42.134;24.708;2023-04-06T08:03:47;11.27;;;7.82;;
2680;SDS011;1350;42.134;24.708;2023-04-06T08:06:14;11.25;;;7.97;;
2680;SDS011;1350;42.134;24.708;2023-04-06T08:08:40;13.02;;;7.88;;
2680;SDS011;1350;42.134;24.708;2023-04-06T08:11:07;10.02;;;7.68;;
2680;SDS011;1350;42.134;24.708;2023-04-06T08:13:34;11.60;;;8.98;;
2680;SDS011;1350;42.134;24.708;2023-04-06T08:16:03;15.30;;;8.48;;
2680;SDS011;1350;42.134;24.708;2023-04-06T08:18:30;11.63;;;7.78;;
2680;SDS011;1350;42.134;24.708;2023-04-06T08:20:57;15.00;;;9.10;;
2680;SDS011;1350;42.134;24.708;2023-04-06T08:23:24;11.60;;;7.38;;
2680;SDS011;1350;42.134;24.708;2023-04-06T08:25:50;10.48;;;7.63;;
2680;SDS011;1350;42.134;24.708;2023-04-06T08:28:19;10.82;;;8.02;;
2680;SDS011;1350;42.134;24.708;2023-04-06T08:30:46;12.65;;;7.93;;
2680;SDS011;1350;42.134;24.708;2023-04-06T08:33:14;11.60;;;7.90;;
2680;SDS011;1350;42.134;24.708;2023-04-06T08:35:42;11.13;;;7.57;;
2680;SDS011;1350;42.134;24.708;2023-04-06T08:38:09;12.13;;;8.35;;
2680;SDS011;1350;42.134;24.708;2023-04-06T08:40:36;11.65;;;8.13;;
2680;SDS011;1350;42.134;24.708;2023-04-06T08:43:03;11.43;;;8.32;;
2680;SDS011;1350;42.134;24.708;2023-04-06T08:45:35;19.02;;;8.77;;
2680;SDS011;1350;42.134;24.708;2023-04-06T08:48:02;11.32;;;8.63;;
2680;SDS011;1350;42.134;24.708;2023-04-06T08:50:31;11.05;;;7.47;;
2680;SDS011;1350;42.134;24.708;2023-04-06T08:53:00;11.65;;;8.02;;
2680;SDS011;1350;42.134;24.708;2023-04-06T08:55:27;12.63;;;9.02;;
2680;SDS011;1350;42.134;24.708;2023-04-06T08:57:54;20.58;;;9.25;;
2680;SDS011;1350;42.134;24.708;2023-04-06T09:00:22;16.58;;;7.85;;
2680;SDS011;1350;42.134;24.708;2023-04-06T09:02:50;12.95;;;8.10;;
2680;SDS011;1350;42.134;24.708;2023-04-06T09:05:21;11.07;;;7.90;;
2680;SDS011;1350;42.134;24.708;2023-04-06T09:07:51;12.23;;;8.25;;
2680;SDS011;1350;42.134;24.708;2023-04-06T09:10:18;13.13;;;8.75;;
2680;SDS011;1350;42.134;24.708;2023-04-06T09:12:46;17.40;;;8.13;;
2680;SDS011;1350;42.134;24.708;2023-04-06T09:15:19;16.17;;;7.82;;
2680;SDS011;1350;42.134;24.708;2023-04-06T09:17:46;13.95;;;7.85;;
2680;SDS011;1350;42.134;24.708;2023-04-06T09:20:13;9.50;;;7.22;;
2680;SDS011;1350;42.134;24.708;2023-04-06T09:22:42;8.85;;;6.38;;
2680;SDS011;1350;42.134;24.708;2023-04-06T09:25:17;16.17;;;8.63;;
2680;SDS011;1350;42.134;24.708;2023-04-06T09:27:46;14.20;;;7.47;;
2680;SDS011;1350;42.134;24.708;2023-04-06T09:30:13;12.18;;;6.78;;
2680;SDS011;1350;42.134;24.708;2023-04-06T09:32:47;14.23;;;7.68;;
2680;SDS011;1350;42.134;24.708;2023-04-06T09:35:16;8.73;;;6.00;;
2680;SDS011;1350;42.134;24.708;2023-04-06T09:37:45;9.85;;;6.20;;
2680;SDS011;1350;42.134;24.708;2023-04-06T09:40:14;10.00;;;6.22;;
2680;SDS011;1350;42.134;24.708;2023-04-06T09:42:42;10.45;;;7.25;;
2680;SDS011;1350;42.134;24.708;2023-04-06T09:45:14;13.27;;;4.90;;
2680;SDS011;1350;42.134;24.708;2023-04-06T09:47:42;12.85;;;5.32;;
2680;SDS011;1350;42.134;24.708;2023-04-06T09:50:11;9.35;;;4.38;;
2680;SDS011;1350;42.134;24.708;2023-04-06T09:52:40;9.80;;;5.13;;
2680;SDS011;1350;42.134;24.708;2023-04-06T09:55:09;9.13;;;4.63;;
2680;SDS011;1350;42.134;24.708;2023-04-06T09:57:42;7.68;;;4.88;;
2680;SDS011;1350;42.134;24.708;2023-04-06T10:00:15;10.75;;;5.60;;
2680;SDS011;1350;42.134;24.708;2023-04-06T10:02:49;9.65;;;5.68;;
2680;SDS011;1350;42.134;24.708;2023-04-06T10:05:22;9.05;;;5.53;;
2680;SDS011;1350;42.134;24.708;2023-04-06T10:07:59;11.05;;;6.18;;
2680;SDS011;1350;42.134;24.708;2023-04-06T10:10:34;10.40;;;4.90;;
2680;SDS011;1350;42.134;24.708;2023-04-06T10:13:05;19.58;;;10.65;;
2680;SDS011;1350;42.134;24.708;2023-04-06T10:15:36;19.05;;;14.00;;
2680;SDS011;1350;42.134;24.708;2023-04-06T10:18:11;15.52;;;10.35;;
2680;SDS011;1350;42.134;24.708;2023-04-06T10:20:38;12.35;;;7.20;;
2680;SDS011;1350;42.134;24.708;2023-04-06T10:23:10;9.50;;;6.25;;
2680;SDS011;1350;42.134;24.708;2023-04-06T10:25:51;8.10;;;5.13;;
2680;SDS011;1350;42.134;24.708;2023-04-06T10:28:20;11.48;;;5.30;;
2680;SDS011;1350;42.134;24.708;2023-04-06T10:31:01;7.65;;;5.32;;
2680;SDS011;1350;42.134;24.708;2023-04-06T10:33:30;9.50;;;5.63;;
2680;SDS011;1350;42.134;24.708;2023-04-06T10:35:57;13.43;;;9.10;;
2680;SDS011;1350;42.134;24.708;2023-04-06T10:38:42;33.03;;;21.48;;
2680;SDS011;1350;42.134;24.708;2023-04-06T10:41:20;11.33;;;6.97;;
2680;SDS011;1350;42.134;24.708;2023-04-06T10:43:54;12.30;;;5.55;;
2680;SDS011;1350;42.134;24.708;2023-04-06T10:46:24;10.00;;;5.00;;
2680;SDS011;1350;42.134;24.708;2023-04-06T10:48:52;9.95;;;5.05;;
2680;SDS011;1350;42.134;24.708;2023-04-06T10:51:19;10.05;;;4.97;;
2680;SDS011;1350;42.134;24.708;2023-04-06T10:53:52;9.32;;;4.90;;
2680;SDS011;1350;42.134;24.708;2023-04-06T10:56:23;9.27;;;5.93;;
2680;SDS011;1350;42.134;24.708;2023-04-06T11:01:46;14.25;;;5.70;;
2680;SDS011;1350;42.134;24.708;2023-04-06T11:04:15;9.10;;;6.13;;
2680;SDS011;1350;42.134;24.708;2023-04-06T11:06:46;11.20;;;5.07;;
2680;SDS011;1350;42.134;24.708;2023-04-06T11:09:22;23.77;;;6.80;;
2680;SDS011;1350;42.134;24.708;2023-04-06T11:11:51;9.10;;;5.10;;
2680;SDS011;1350;42.134;24.708;2023-04-06T11:14:19;9.90;;;6.07;;
2680;SDS011;1350;42.134;24.708;2023-04-06T11:16:46;12.10;;;6.05;;
2680;SDS011;1350;42.134;24.708;2023-04-06T11:19:15;8.80;;;6.80;;
2680;SDS011;1350;42.134;24.708;2023-04-06T11:21:42;10.17;;;6.00;;
2680;SDS011;1350;42.134;24.708;2023-04-06T11:24:19;11.70;;;5.63;;
2680;SDS011;1350;42.134;24.708;2023-04-06T11:26:48;11.27;;;6.63;;
2680;SDS011;1350;42.134;24.708;2023-04-06T11:29:28;8.70;;;5.40;;
2680;SDS011;1350;42.134;24.708;2023-04-06T11:32:06;8.57;;;5.50;;
2680;SDS011;1350;42.134;24.708;2023-04-06T11:34:37;8.93;;;4.50;;
2680;SDS011;1350;42.134;24.708;2023-04-06T11:37:16;9.17;;;5.50;;
2680;SDS011;1350;42.134;24.708;2023-04-06T11:40:07;9.57;;;5.43;;
2680;SDS011;1350;42.134;24.708;2023-04-06T11:43:25;13.18;;;6.72;;
2680;SDS011;1350;42.134;24.708;2023-04-06T11:45:47;10.75;;;6.55;;
2680;SDS011;1350;42.134;24.708;2023-04-06T11:48:20;12.48;;;6.18;;
2680;SDS011;1350;42.134;24.708;2023-04-06T11:50:55;10.90;;;5.95;;
2680;SDS011;1350;42.134;24.708;2023-04-06T11:53:44;10.52;;;6.75;;
2680;SDS011;1350;42.134;24.708;2023-04-06T11:56:34;10.35;;;7.57;;
2680;SDS011;1350;42.134;24.708;2023-04-06T11:59:14;8.88;;;6.97;;
2680;SDS011;1350;42.134;24.708;2023-04-06T12:01:47;14.25;;;6.38;;
2680;SDS011;1350;42.134;24.708;2023-04-06T12:04:14;13.45;;;6.40;;
2680;SDS011;1350;42.134;24.708;2023-04-06T12:06:45;8.55;;;6.63;;
2680;SDS011;1350;42.134;24.708;2023-04-06T12:09:47;10.30;;;6.38;;
2680;SDS011;1350;42.134;24.708;2023-04-06T12:12:14;11.07;;;9.27;;
2680;SDS011;1350;42.134;24.708;2023-04-06T12:14:41;16.10;;;8.23;;
2680;SDS011;1350;42.134;24.708;2023-04-06T12:17:09;11.52;;;6.85;;
2680;SDS011;1350;42.134;24.708;2023-04-06T12:19:36;9.57;;;6.45;;
2680;SDS011;1350;42.134;24.708;2023-04-06T12:22:03;8.85;;;6.82;;
2680;SDS011;1350;42.134;24.708;2023-04-06T12:24:30;15.10;;;7.38;;
2680;SDS011;1350;42.134;24.708;2023-04-06T12:27:00;12.82;;;8.07;;
2680;SDS011;1350;42.134;24.708;2023-04-06T12:29:30;11.50;;;8.65;;
2680;SDS011;1350;42.134;24.708;2023-04-06T12:31:57;15.52;;;8.90;;
2680;SDS011;1350;42.134;24.708;2023-04-06T12:34:25;18.05;;;6.93;;
2680;SDS011;1350;42.134;24.708;2023-04-06T12:36:52;10.82;;;7.13;;
2680;SDS011;1350;42.134;24.708;2023-04-06T12:39:19;13.13;;;8.43;;
2680;SDS011;1350;42.134;24.708;2023-04-06T12:41:47;10.70;;;7.15;;
2680;SDS011;1350;42.134;24.708;2023-04-06T12:44:13;12.05;;;6.90;;
2680;SDS011;1350;42.134;24.708;2023-04-06T12:46:42;11.27;;;6.90;;
2680;SDS011;1350;42.134;24.708;2023-04-06T12:49:10;12.25;;;7.57;;
2680;SDS011;1350;42.134;24.708;2023-04-06T12:51:38;20.30;;;9.02;;
2680;SDS011;1350;42.134;24.708;2023-04-06T12:54:05;9.73;;;7.45;;
2680;SDS011;1350;42.134;24.708;2023-04-06T12:56:32;10.75;;;7.03;;
2680;SDS011;1350;42.134;24.708;2023-04-06T12:58:59;12.00;;;7.75;;
2680;SDS011;1350;42.134;24.708;2023-04-06T13:01:26;9.95;;;6.18;;
2680;SDS011;1350;42.134;24.708;2023-04-06T13:03:55;15.98;;;6.30;;
2680;SDS011;1350;42.134;24.708;2023-04-06T13:06:24;13.30;;;7.78;;
2680;SDS011;1350;42.134;24.708;2023-04-06T13:09:00;13.85;;;7.65;;
2680;SDS011;1350;42.134;24.708;2023-04-06T13:11:34;12.07;;;8.25;;
2680;SDS011;1350;42.134;24.708;2023-04-06T13:14:11;11.05;;;7.60;;
2680;SDS011;1350;42.134;24.708;2023-04-06T13:16:44;12.73;;;7.35;;
2680;SDS011;1350;42.134;24.708;2023-04-06T13:19:11;8.70;;;6.70;;
2680;SDS011;1350;42.134;24.708;2023-04-06T13:21:38;12.52;;;9.10;;
2680;SDS011;1350;42.134;24.708;2023-04-06T13:24:09;20.92;;;8.05;;
2680;SDS011;1350;42.134;24.708;2023-04-06T13:26:36;11.65;;;7.90;;
2680;SDS011;1350;42.134;24.708;2023-04-06T13:29:03;9.60;;;6.85;;
2680;SDS011;1350;42.134;24.708;2023-04-06T13:31:29;11.90;;;7.60;;
2680;SDS011;1350;42.134;24.708;2023-04-06T13:34:06;14.48;;;10.90;;
2680;SDS011;1350;42.134;24.708;2023-04-06T13:36:33;15.07;;;8.57;;
2680;SDS011;1350;42.134;24.708;2023-04-06T13:39:00;9.15;;;7.00;;
2680;SDS011;1350;42.134;24.708;2023-04-06T13:41:32;10.57;;;7.05;;
2680;SDS011;1350;42.134;24.708;2023-04-06T13:44:04;11.57;;;7.20;;
2680;SDS011;1350;42.134;24.708;2023-04-06T13:46:32;13.20;;;7.95;;
2680;SDS011;1350;42.134;24.708;2023-04-06T13:49:02;12.43;;;7.65;;
2680;SDS011;1350;42.134;24.708;2023-04-06T13:51:29;12.98;;;7.13;;
2680;SDS011;1350;42.134;24.708;2023-04-06T13:53:55;13.55;;;7.22;;
2680;SDS011;1350;42.134;24.708;2023-04-06T13:56:25;12.77;;;7.75;;
2680;SDS011;1350;42.134;24.708;2023-04-06T13:58:56;10.57;;;6.82;;
2680;SDS011;1350;42.134;24.708;2023-04-06T14:01:31;13.82;;;7.18;;
2680;SDS011;1350;42.134;24.708;2023-04-06T14:03:58;10.77;;;7.05;;
2680;SDS011;1350;42.134;24.708;2023-04-06T14:06:25;16.95;;;7.90;;
2680;SDS011;1350;42.134;24.708;2023-04-06T14:08:51;10.75;;;8.57;;
2680;SDS011;1350;42.134;24.708;2023-04-06T14:11:18;13.40;;;6.90;;
2680;SDS011;1350;42.134;24.708;2023-04-06T14:13:45;9.95;;;7.18;;
2680;SDS011;1350;42.134;24.708;2023-04-06T14:16:13;10.65;;;7.30;;
2680;SDS011;1350;42.134;24.708;2023-04-06T14:18:40;16.27;;;7.03;;
2680;SDS011;1350;42.134;24.708;2023-04-06T14:21:07;13.90;;;7.95;;
2680;SDS011;1350;42.134;24.708;2023-04-06T14:23:42;9.68;;;6.65;;
2680;SDS011;1350;42.134;24.708;2023-04-06T14:26:09;11.57;;;6.55;;
2680;SDS011;1350;42.134;24.708;2023-04-06T14:28:36;15.73;;;6.93;;
2680;SDS011;1350;42.134;24.708;2023-04-06T14:31:09;11.25;;;6.30;;
2680;SDS011;1350;42.134;24.708;2023-04-06T14:33:39;11.43;;;7.05;;
2680;SDS011;1350;42.134;24.708;2023-04-06T14:36:06;9.25;;;5.60;;
2680;SDS011;1350;42.134;24.708;2023-04-06T14:38:33;13.35;;;6.68;;
2680;SDS011;1350;42.134;24.708;2023-04-06T14:41:00;16.42;;;7.68;;
2680;SDS011;1350;42.134;24.708;2023-04-06T14:43:27;9.20;;;6.15;;
2680;SDS011;1350;42.134;24.708;2023-04-06T14:45:54;17.60;;;6.80;;
2680;SDS011;1350;42.134;24.708;2023-04-06T14:48:25;14.30;;;6.88;;
2680;SDS011;1350;42.134;24.708;2023-04-06T14:50:53;9.20;;;6.25;;
2680;SDS011;1350;42.134;24.708;2023-04-06T14:53:21;9.57;;;6.90;;